createdAt,value
2023-02-07T00:00:07.460Z,-2.20
2023-02-07T00:02:46.659Z,-2.20
2023-02-07T00:05:19.835Z,-2.20
2023-02-07T00:07:53.890Z,-2.23
2023-02-07T00:10:26.955Z,-2.27
2023-02-07T00:12:59.838Z,-2.26
2023-02-07T00:15:32.904Z,-2.28
2023-02-07T00:18:05.953Z,-2.54
2023-02-07T00:20:39.158Z,-2.30
2023-02-07T00:23:13.405Z,-2.43
2023-02-07T00:25:46.264Z,-2.38
2023-02-07T00:28:19.285Z,-2.37
2023-02-07T00:31:03.308Z,-2.35
2023-02-07T00:33:37.696Z,-2.40
2023-02-07T00:36:15.037Z,-2.45
2023-02-07T00:38:49.953Z,-2.38
2023-02-07T00:41:23.484Z,-2.32
2023-02-07T00:43:56.561Z,-2.35
2023-02-07T00:46:29.412Z,-2.39
2023-02-07T00:49:02.598Z,-2.28
2023-02-07T00:51:36.301Z,-2.25
2023-02-07T00:54:10.519Z,-2.36
2023-02-07T00:56:43.399Z,-2.33
2023-02-07T00:59:16.226Z,-2.26
2023-02-07T01:01:49.406Z,-2.26
2023-02-07T01:04:22.477Z,-2.25
2023-02-07T01:06:55.037Z,-2.26
2023-02-07T01:09:32.316Z,-2.28
2023-02-07T01:12:05.452Z,-2.33
2023-02-07T01:14:38.174Z,-2.30
2023-02-07T01:17:11.863Z,-2.30
2023-02-07T01:19:44.956Z,-2.28
2023-02-07T01:22:18.303Z,-2.27
2023-02-07T01:24:53.461Z,-2.33
2023-02-07T01:27:26.619Z,-2.27
2023-02-07T01:29:59.725Z,-2.29
2023-02-07T01:32:33.553Z,-2.29
2023-02-07T01:35:07.473Z,-2.33
2023-02-07T01:37:40.706Z,-2.30
2023-02-07T01:40:15.219Z,-2.25
2023-02-07T01:42:48.117Z,-2.28
2023-02-07T01:45:28.232Z,-2.25
2023-02-07T01:48:05.217Z,-2.27
2023-02-07T01:50:39.676Z,-2.27
2023-02-07T01:53:14.626Z,-2.29
2023-02-07T01:55:51.427Z,-2.30
2023-02-07T01:58:24.569Z,-2.33
2023-02-07T02:00:59.523Z,-2.37
2023-02-07T02:03:33.436Z,-2.36
2023-02-07T02:06:06.933Z,-2.38
2023-02-07T02:08:39.983Z,-2.39
2023-02-07T02:11:43.544Z,-2.50
2023-02-07T02:14:29.186Z,-2.38
2023-02-07T02:17:33.715Z,-2.42
2023-02-07T02:20:49.208Z,-2.42
2023-02-07T02:23:34.368Z,-2.42
2023-02-07T02:26:42.219Z,-2.43
2023-02-07T02:29:53.876Z,-2.44
2023-02-07T02:33:04.673Z,-2.42
2023-02-07T02:35:48.087Z,-2.43
2023-02-07T02:38:29.029Z,-2.54
2023-02-07T02:41:10.439Z,-2.49
2023-02-07T02:43:46.621Z,-2.52
2023-02-07T02:46:23.377Z,-2.54
2023-02-07T02:48:57.851Z,-2.52
2023-02-07T02:51:32.670Z,-2.56
2023-02-07T02:54:28.451Z,-2.61
2023-02-07T02:57:31.452Z,-2.51
2023-02-07T03:00:17.350Z,-2.55
2023-02-07T03:03:02.606Z,-2.53
2023-02-07T03:05:51.910Z,-2.51
2023-02-07T03:08:37.062Z,-2.58
2023-02-07T03:11:13.129Z,-2.58
2023-02-07T03:14:04.014Z,-2.55
2023-02-07T03:16:43.929Z,-2.58
2023-02-07T03:19:23.115Z,-2.58
2023-02-07T03:21:58.983Z,-2.56
2023-02-07T03:24:35.755Z,-2.58
2023-02-07T03:27:12.520Z,-2.55
2023-02-07T03:29:48.696Z,-2.59
2023-02-07T03:32:21.662Z,-2.58
2023-02-07T03:35:01.529Z,-2.59
2023-02-07T03:37:40.117Z,-2.54
2023-02-07T03:40:16.446Z,-2.54
2023-02-07T03:42:54.137Z,-2.53
2023-02-07T03:45:27.274Z,-2.55
2023-02-07T03:47:59.995Z,-2.53
2023-02-07T03:50:32.618Z,-2.59
2023-02-07T03:53:06.170Z,-2.51
2023-02-07T03:55:40.557Z,-2.49
2023-02-07T03:58:14.020Z,-2.48
2023-02-07T04:00:49.428Z,-2.46
2023-02-07T04:03:22.802Z,-2.45
2023-02-07T04:05:55.726Z,-2.52
2023-02-07T04:08:28.400Z,-2.54
2023-02-07T04:11:04.544Z,-2.46
2023-02-07T04:13:37.274Z,-2.46
2023-02-07T04:16:10.623Z,-2.49
2023-02-07T04:18:43.570Z,-2.53
2023-02-07T04:21:16.686Z,-2.45
2023-02-07T04:23:49.475Z,-2.46
2023-02-07T04:26:25.557Z,-2.44
2023-02-07T04:28:58.516Z,-2.61
2023-02-07T04:31:31.219Z,-2.51
2023-02-07T04:34:04.742Z,-2.45
2023-02-07T04:36:37.901Z,-2.48
2023-02-07T04:39:11.078Z,-2.46
2023-02-07T04:41:45.215Z,-2.46
2023-02-07T04:44:17.955Z,-2.47
2023-02-07T04:46:50.826Z,-2.47
2023-02-07T04:49:23.379Z,-2.46
2023-02-07T04:51:56.588Z,-2.45
2023-02-07T04:54:29.604Z,-2.51
2023-02-07T04:57:03.842Z,-2.51
2023-02-07T04:59:36.983Z,-2.57
2023-02-07T05:02:10.075Z,-2.48
2023-02-07T05:04:42.989Z,-2.48
2023-02-07T05:07:15.689Z,-2.51
2023-02-07T05:09:48.908Z,-2.53
2023-02-07T05:12:23.293Z,-2.59
2023-02-07T05:14:57.950Z,-2.56
2023-02-07T05:17:34.946Z,-2.59
2023-02-07T05:20:09.386Z,-2.56
2023-02-07T05:22:42.154Z,-2.60
2023-02-07T05:25:16.345Z,-2.63
2023-02-07T05:27:51.322Z,-2.62
2023-02-07T05:30:24.485Z,-2.57
2023-02-07T05:33:06.185Z,-2.55
2023-02-07T05:35:40.606Z,-2.55
2023-02-07T05:38:15.765Z,-2.63
2023-02-07T05:40:49.882Z,-2.56
2023-02-07T05:43:24.384Z,-2.54
2023-02-07T05:45:56.963Z,-2.50
2023-02-07T05:48:30.048Z,-2.50
2023-02-07T05:51:02.796Z,-2.48
2023-02-07T05:53:36.066Z,-2.45
2023-02-07T05:56:08.732Z,-2.44
2023-02-07T05:58:43.489Z,-2.43
2023-02-07T06:01:16.714Z,-2.45
2023-02-07T06:03:49.428Z,-2.44
2023-02-07T06:06:22.980Z,-2.46
2023-02-07T06:08:56.152Z,-2.54
2023-02-07T06:11:29.064Z,-2.41
2023-02-07T06:14:03.497Z,-2.40
2023-02-07T06:16:37.168Z,-2.40
2023-02-07T06:19:13.351Z,-2.40
2023-02-07T06:21:47.096Z,-2.44
2023-02-07T06:24:22.398Z,-2.38
2023-02-07T06:26:55.437Z,-2.34
2023-02-07T06:29:29.905Z,-2.35
2023-02-07T06:32:03.412Z,-2.32
2023-02-07T06:34:36.363Z,-2.31
2023-02-07T06:37:09.430Z,-2.29
2023-02-07T06:39:42.222Z,-2.37
2023-02-07T06:42:15.413Z,-2.29
2023-02-07T06:44:50.549Z,-2.25
2023-02-07T06:47:23.831Z,-2.26
2023-02-07T06:49:56.667Z,-2.21
2023-02-07T06:52:29.454Z,-2.19
2023-02-07T06:55:02.286Z,-2.19
2023-02-07T06:57:35.989Z,-2.17
2023-02-07T07:00:11.668Z,-2.15
2023-02-07T07:02:44.515Z,-2.12
2023-02-07T07:05:17.678Z,-2.12
2023-02-07T07:07:51.745Z,-2.13
2023-02-07T07:10:24.667Z,-2.08
2023-02-07T07:12:57.572Z,-2.04
2023-02-07T07:15:32.041Z,-2.03
2023-02-07T07:18:04.814Z,-1.98
2023-02-07T07:20:37.640Z,-1.89
2023-02-07T07:23:10.667Z,-1.83
2023-02-07T07:25:43.526Z,-1.79
2023-02-07T07:28:16.284Z,-1.77
2023-02-07T07:30:51.159Z,-1.78
2023-02-07T07:33:23.840Z,-1.72
2023-02-07T07:35:58.243Z,-1.68
2023-02-07T07:38:32.303Z,-1.63
2023-02-07T07:41:05.641Z,-1.61
2023-02-07T07:43:38.693Z,-1.53
2023-02-07T07:46:12.580Z,-1.53
2023-02-07T07:48:46.053Z,-1.48
2023-02-07T07:51:19.019Z,-1.43
2023-02-07T07:53:51.523Z,-1.38
2023-02-07T07:56:24.676Z,-1.37
2023-02-07T07:58:57.553Z,-1.26
2023-02-07T08:01:32.124Z,-1.24
2023-02-07T08:04:05.065Z,-1.23
2023-02-07T08:06:38.209Z,-1.27
2023-02-07T08:09:11.358Z,-1.25
2023-02-07T08:11:44.487Z,-1.22
2023-02-07T08:14:16.868Z,-1.30
2023-02-07T08:16:51.111Z,-1.24
2023-02-07T08:19:23.795Z,-1.20
2023-02-07T08:21:56.946Z,-1.21
2023-02-07T08:24:29.785Z,-1.21
2023-02-07T08:27:04.079Z,-1.21
2023-02-07T08:29:37.336Z,-1.22
2023-02-07T08:32:12.082Z,-1.30
2023-02-07T08:34:45.546Z,-1.21
2023-02-07T08:37:18.429Z,-1.21
2023-02-07T08:39:53.058Z,-1.38
2023-02-07T08:42:25.930Z,-1.24
2023-02-07T08:44:58.807Z,-1.28
2023-02-07T08:47:33.701Z,-1.26
2023-02-07T08:50:08.130Z,-1.29
2023-02-07T08:52:41.396Z,-1.25
2023-02-07T08:55:14.559Z,-1.22
2023-02-07T08:57:47.720Z,-1.16
2023-02-07T09:00:21.103Z,-1.07
2023-02-07T09:02:55.294Z,-1.04
2023-02-07T09:05:28.156Z,-1.09
2023-02-07T09:08:00.791Z,-1.14
2023-02-07T09:10:33.896Z,-1.14
2023-02-07T09:13:06.802Z,-1.12
2023-02-07T09:15:39.746Z,-1.13
2023-02-07T09:18:14.418Z,-1.10
2023-02-07T09:20:47.876Z,-1.10
2023-02-07T09:23:21.194Z,-1.15
2023-02-07T09:25:54.533Z,-1.15
2023-02-07T09:28:27.811Z,-1.18
2023-02-07T09:31:00.652Z,-1.21
2023-02-07T09:33:35.490Z,-1.23
2023-02-07T09:36:19.312Z,-1.30
2023-02-07T09:38:54.136Z,-1.14
2023-02-07T09:41:34.091Z,-1.12
2023-02-07T09:44:15.953Z,-1.14
2023-02-07T09:46:54.904Z,-1.17
2023-02-07T09:49:35.761Z,-1.20
2023-02-07T09:52:19.327Z,-1.21
2023-02-07T09:54:54.939Z,-1.23
2023-02-07T09:57:33.291Z,-1.18
2023-02-07T10:00:19.253Z,-1.08
2023-02-07T10:02:57.723Z,-1.07
2023-02-07T10:05:41.170Z,-1.10
2023-02-07T10:08:17.481Z,-1.15
2023-02-07T10:11:02.189Z,-1.24
2023-02-07T10:13:50.611Z,-1.38
2023-02-07T10:16:43.669Z,-1.47
2023-02-07T10:19:35.704Z,-1.55
2023-02-07T10:22:23.902Z,-1.61
2023-02-07T10:25:21.442Z,-1.66
2023-02-07T10:28:01.792Z,-1.71
2023-02-07T10:30:37.996Z,-1.70
2023-02-07T10:33:16.129Z,-1.72
2023-02-07T10:35:49.542Z,-1.76
2023-02-07T10:38:31.102Z,-1.74
2023-02-07T10:41:11.615Z,-1.74
2023-02-07T10:43:47.898Z,-1.65
2023-02-07T10:46:23.622Z,-1.60
2023-02-07T10:48:57.050Z,-1.53
2023-02-07T10:51:34.680Z,-1.44
2023-02-07T10:54:11.948Z,-1.28
2023-02-07T10:56:48.762Z,-1.20
2023-02-07T10:59:46.005Z,-1.12
2023-02-07T11:02:50.032Z,-0.93
2023-02-07T11:05:41.534Z,-0.87
2023-02-07T11:08:25.834Z,-1.00
2023-02-07T11:11:17.106Z,-0.92
2023-02-07T11:13:52.179Z,-0.90
2023-02-07T11:16:25.728Z,-0.86
2023-02-07T11:19:00.799Z,-0.83
2023-02-07T11:21:40.933Z,-0.79
2023-02-07T11:24:17.025Z,-0.81
2023-02-07T11:26:58.157Z,-0.83
2023-02-07T11:29:34.635Z,-0.89
2023-02-07T11:32:07.517Z,-0.95
2023-02-07T11:34:48.192Z,-0.98
2023-02-07T11:37:28.196Z,-0.90
2023-02-07T11:40:23.876Z,-0.91
2023-02-07T11:43:07.155Z,-1.00
2023-02-07T11:45:43.079Z,-1.03
2023-02-07T11:48:19.350Z,-1.10
2023-02-07T11:50:55.724Z,-1.21
2023-02-07T11:53:35.312Z,-1.32
2023-02-07T11:56:21.339Z,-1.35
2023-02-07T11:59:02.238Z,-1.43
2023-02-07T12:01:37.952Z,-1.48
2023-02-07T12:04:16.263Z,-1.57
2023-02-07T12:06:55.278Z,-1.55
2023-02-07T12:09:35.434Z,-1.61
2023-02-07T12:12:16.132Z,-1.59
2023-02-07T12:14:55.240Z,-1.46
2023-02-07T12:17:34.375Z,-1.44
2023-02-07T12:20:15.237Z,-1.44
2023-02-07T12:23:11.608Z,-1.52
2023-02-07T12:25:55.003Z,-1.27
2023-02-07T12:28:34.297Z,-1.28
2023-02-07T12:31:19.684Z,-1.23
2023-02-07T12:34:02.135Z,-1.34
2023-02-07T12:36:39.522Z,-1.17
2023-02-07T12:39:19.342Z,-1.16
2023-02-07T12:41:57.496Z,-1.16
2023-02-07T12:44:35.600Z,-1.11
2023-02-07T12:47:17.357Z,-1.10
2023-02-07T12:50:05.384Z,-1.09
2023-02-07T12:52:51.825Z,-1.08
2023-02-07T12:55:36.388Z,-1.10
2023-02-07T12:58:26.343Z,-1.08
2023-02-07T13:01:04.419Z,-1.10
2023-02-07T13:04:02.212Z,-1.18
2023-02-07T13:06:40.661Z,-1.02
2023-02-07T13:09:25.475Z,-0.97
2023-02-07T13:12:09.111Z,-1.10
2023-02-07T13:14:54.708Z,-0.91
2023-02-07T13:17:38.751Z,-0.91
2023-02-07T13:20:35.642Z,-0.96
2023-02-07T13:23:19.360Z,-1.06
2023-02-07T13:25:57.865Z,-1.00
2023-02-07T13:28:42.764Z,-1.00
2023-02-07T13:31:19.209Z,-1.02
2023-02-07T13:33:53.479Z,-1.06
2023-02-07T13:36:39.171Z,-1.01
2023-02-07T13:39:22.889Z,-1.00
2023-02-07T13:42:08.815Z,-1.00
2023-02-07T13:44:49.412Z,-1.04
2023-02-07T13:47:44.414Z,-1.09
2023-02-07T13:50:29.965Z,-1.10
2023-02-07T13:53:13.532Z,-1.14
2023-02-07T13:55:48.725Z,-1.15
2023-02-07T13:59:11.783Z,-1.15
2023-02-07T14:01:54.877Z,-1.19
2023-02-07T14:04:47.817Z,-1.24
2023-02-07T14:07:26.182Z,-1.27
2023-02-07T14:10:00.792Z,-1.45
2023-02-07T14:12:39.731Z,-1.38
2023-02-07T14:15:55.645Z,-1.32
2023-02-07T14:18:48.483Z,-1.32
2023-02-07T14:21:43.732Z,-1.32
2023-02-07T14:24:48.062Z,-1.37
2023-02-07T14:27:33.535Z,-1.34
2023-02-07T14:30:22.126Z,-1.33
2023-02-07T14:33:11.954Z,-1.37
2023-02-07T14:36:19.731Z,-1.35
2023-02-07T14:39:30.521Z,-1.45
2023-02-07T14:42:13.368Z,-1.54
2023-02-07T14:44:51.122Z,-1.44
2023-02-07T14:47:28.038Z,-1.58
2023-02-07T14:50:01.681Z,-1.57
2023-02-07T14:52:39.691Z,-1.64
2023-02-07T14:55:17.770Z,-1.59
2023-02-07T14:57:56.460Z,-1.61
2023-02-07T15:00:38.995Z,-1.63
2023-02-07T15:03:14.886Z,-1.68
2023-02-07T15:05:52.804Z,-1.73
2023-02-07T15:08:28.196Z,-1.81
2023-02-07T15:11:04.057Z,-1.83
2023-02-07T15:13:40.152Z,-1.89
2023-02-07T15:16:18.175Z,-2.01
2023-02-07T15:18:54.197Z,-2.20
2023-02-07T15:21:32.701Z,-2.10
2023-02-07T15:24:07.888Z,-2.10
2023-02-07T15:26:41.328Z,-2.12
2023-02-07T15:29:25.564Z,-2.23
2023-02-07T15:32:00.724Z,-2.27
2023-02-07T15:34:35.335Z,-2.30
2023-02-07T15:37:14.035Z,-2.27
2023-02-07T15:39:48.216Z,-2.40
2023-02-07T15:42:22.297Z,-2.40
2023-02-07T15:44:57.669Z,-2.47
2023-02-07T15:47:36.795Z,-2.61
2023-02-07T15:50:23.297Z,-2.60
2023-02-07T15:52:58.488Z,-2.73
2023-02-07T15:55:35.304Z,-2.82
2023-02-07T15:58:19.160Z,-2.88
2023-02-07T16:00:56.093Z,-3.04
2023-02-07T16:03:32.104Z,-3.09
2023-02-07T16:06:14.041Z,-3.16
2023-02-07T16:08:48.107Z,-3.26
2023-02-07T16:11:35.979Z,-3.36
2023-02-07T16:14:22.770Z,-3.44
2023-02-07T16:16:57.604Z,-3.57
2023-02-07T16:19:33.410Z,-3.58
2023-02-07T16:22:12.394Z,-3.66
2023-02-07T16:24:50.842Z,-3.82
2023-02-07T16:27:30.574Z,-3.73
2023-02-07T16:30:04.055Z,-3.82
2023-02-07T16:32:37.436Z,-3.85
2023-02-07T16:35:17.211Z,-3.94
2023-02-07T16:37:51.024Z,-4.04
2023-02-07T16:40:24.553Z,-4.11
2023-02-07T16:42:58.366Z,-4.15
2023-02-07T16:45:32.659Z,-4.20
2023-02-07T16:48:13.632Z,-4.25
2023-02-07T16:50:47.692Z,-4.28
2023-02-07T16:53:20.872Z,-4.28
2023-02-07T16:55:54.103Z,-4.28
2023-02-07T16:58:29.741Z,-4.29
2023-02-07T17:01:03.325Z,-4.36
2023-02-07T17:03:36.488Z,-4.32
2023-02-07T17:06:14.841Z,-4.34
2023-02-07T17:08:47.686Z,-4.40
2023-02-07T17:11:26.400Z,-4.47
2023-02-07T17:13:59.878Z,-4.59
2023-02-07T17:16:32.965Z,-4.62
2023-02-07T17:19:12.232Z,-4.70
2023-02-07T17:21:47.637Z,-4.83
2023-02-07T17:24:20.354Z,-4.91
2023-02-07T17:26:55.065Z,-5.02
2023-02-07T17:29:27.929Z,-5.06
2023-02-07T17:32:00.976Z,-5.11
2023-02-07T17:34:34.225Z,-5.19
2023-02-07T17:37:12.118Z,-5.16
2023-02-07T17:39:45.126Z,-5.21
2023-02-07T17:42:18.287Z,-5.29
2023-02-07T17:44:51.599Z,-5.23
2023-02-07T17:47:25.007Z,-5.51
2023-02-07T17:49:57.966Z,-5.37
2023-02-07T17:52:32.434Z,-5.23
2023-02-07T17:55:06.872Z,-5.30
2023-02-07T17:57:41.663Z,-5.32
2023-02-07T18:00:18.475Z,-5.56
2023-02-07T18:02:51.848Z,-5.57
2023-02-07T18:05:25.244Z,-5.64
2023-02-07T18:07:59.870Z,-5.69
2023-02-07T18:10:34.349Z,-5.73
2023-02-07T18:13:07.155Z,-5.82
2023-02-07T18:15:40.313Z,-5.85
2023-02-07T18:18:14.476Z,-5.93
2023-02-07T18:20:47.368Z,-6.15
2023-02-07T18:23:21.451Z,-5.88
2023-02-07T18:25:54.576Z,-6.05
2023-02-07T18:28:28.372Z,-5.96
2023-02-07T18:31:01.320Z,-6.06
2023-02-07T18:33:34.365Z,-6.05
2023-02-07T18:36:08.643Z,-6.09
2023-02-07T18:38:43.284Z,-6.19
2023-02-07T18:41:21.689Z,-6.33
2023-02-07T18:43:55.078Z,-6.27
2023-02-07T18:46:28.462Z,-6.37
2023-02-07T18:49:01.858Z,-6.43
2023-02-07T18:51:34.884Z,-6.76
2023-02-07T18:54:09.620Z,-6.40
2023-02-07T18:56:47.687Z,-6.46
2023-02-07T18:59:23.271Z,-6.37
2023-02-07T19:01:56.498Z,-6.38
2023-02-07T19:04:30.089Z,-6.43
2023-02-07T19:07:05.669Z,-6.49
2023-02-07T19:09:42.055Z,-6.62
2023-02-07T19:12:15.649Z,-6.71
2023-02-07T19:14:51.527Z,-6.76
2023-02-07T19:17:25.308Z,-6.93
2023-02-07T19:19:58.431Z,-6.89
2023-02-07T19:22:35.701Z,-7.00
2023-02-07T19:25:13.510Z,-7.05
2023-02-07T19:27:46.377Z,-7.06
2023-02-07T19:30:19.793Z,-7.14
2023-02-07T19:32:53.445Z,-7.15
2023-02-07T19:35:27.609Z,-7.04
2023-02-07T19:38:00.404Z,-7.06
2023-02-07T19:40:34.957Z,-7.14
2023-02-07T19:43:08.034Z,-7.20
2023-02-07T19:45:40.971Z,-7.40
2023-02-07T19:48:14.235Z,-7.43
2023-02-07T19:50:47.240Z,-7.39
2023-02-07T19:53:19.954Z,-7.44
2023-02-07T19:55:55.576Z,-7.49
2023-02-07T19:58:29.470Z,-7.63
2023-02-07T20:01:02.824Z,-7.62
2023-02-07T20:03:38.508Z,-7.75
2023-02-07T20:06:14.431Z,-7.62
2023-02-07T20:08:49.086Z,-7.60
2023-02-07T20:11:23.813Z,-7.71
2023-02-07T20:14:03.722Z,-7.63
2023-02-07T20:16:39.015Z,-7.68
2023-02-07T20:19:12.022Z,-7.67
2023-02-07T20:21:44.943Z,-7.66
2023-02-07T20:24:18.087Z,-7.65
2023-02-07T20:26:52.386Z,-7.65
2023-02-07T20:29:25.183Z,-7.65
2023-02-07T20:31:58.170Z,-7.73
2023-02-07T20:34:30.939Z,-7.81
2023-02-07T20:37:03.840Z,-7.90
2023-02-07T20:39:36.265Z,-7.97
2023-02-07T20:42:10.739Z,-8.00
2023-02-07T20:44:43.796Z,-8.12
2023-02-07T20:47:16.954Z,-8.08
2023-02-07T20:49:50.030Z,-8.14
2023-02-07T20:52:22.871Z,-8.13
2023-02-07T20:54:55.959Z,-8.16
2023-02-07T20:57:30.238Z,-8.16
2023-02-07T21:00:02.718Z,-8.15
2023-02-07T21:02:37.118Z,-8.16
2023-02-07T21:05:10.224Z,-8.21
2023-02-07T21:07:43.158Z,-8.23
2023-02-07T21:10:16.105Z,-8.32
2023-02-07T21:12:50.378Z,-8.45
2023-02-07T21:15:23.486Z,-8.50
2023-02-07T21:17:56.363Z,-8.57
2023-02-07T21:20:30.038Z,-8.62
2023-02-07T21:23:03.001Z,-8.65
2023-02-07T21:25:36.118Z,-8.70
2023-02-07T21:28:10.651Z,-8.73
2023-02-07T21:30:44.059Z,-8.79
2023-02-07T21:33:16.541Z,-8.83
2023-02-07T21:35:49.616Z,-8.90
2023-02-07T21:38:23.026Z,-8.96
2023-02-07T21:40:55.799Z,-9.03
2023-02-07T21:43:30.049Z,-9.07
2023-02-07T21:46:06.314Z,-9.10
2023-02-07T21:48:40.638Z,-9.09
2023-02-07T21:51:16.711Z,-9.06
2023-02-07T21:53:50.561Z,-9.01
2023-02-07T21:56:25.957Z,-9.02
2023-02-07T21:59:01.606Z,-9.18
2023-02-07T22:01:36.659Z,-9.11
2023-02-07T22:04:14.377Z,-9.21
2023-02-07T22:06:49.531Z,-9.24
2023-02-07T22:09:23.628Z,-9.33
2023-02-07T22:11:56.823Z,-9.39
2023-02-07T22:14:30.927Z,-9.51
2023-02-07T22:17:04.249Z,-9.53
2023-02-07T22:19:36.739Z,-9.51
2023-02-07T22:22:09.770Z,-9.51
2023-02-07T22:25:17.244Z,-9.51
2023-02-07T22:27:50.333Z,-9.53
2023-02-07T22:30:24.775Z,-9.59
2023-02-07T22:33:03.164Z,-9.57
2023-02-07T22:35:41.156Z,-9.57
2023-02-07T22:38:17.182Z,-9.62
2023-02-07T22:40:52.131Z,-9.67
2023-02-07T22:43:26.609Z,-9.72
2023-02-07T22:46:06.881Z,-9.78
2023-02-07T22:48:41.613Z,-9.98
2023-02-07T22:51:21.974Z,-9.96
2023-02-07T22:53:57.667Z,-10.01
2023-02-07T22:56:30.189Z,-10.06
2023-02-07T22:59:03.823Z,-9.93
2023-02-07T23:01:39.859Z,-9.91
2023-02-07T23:04:16.750Z,-9.90
2023-02-07T23:06:49.286Z,-9.99
2023-02-07T23:09:22.430Z,-9.96
2023-02-07T23:11:55.428Z,-10.03
2023-02-07T23:14:28.246Z,-10.09
2023-02-07T23:17:02.546Z,-10.16
2023-02-07T23:19:35.578Z,-10.23
2023-02-07T23:22:08.439Z,-10.27
2023-02-07T23:24:41.069Z,-10.23
2023-02-07T23:27:15.553Z,-10.22
2023-02-07T23:29:48.616Z,-10.14
2023-02-07T23:32:23.050Z,-10.10
2023-02-07T23:34:56.414Z,-10.08
2023-02-07T23:37:29.915Z,-10.00
2023-02-07T23:40:02.890Z,-9.99
2023-02-07T23:42:36.086Z,-10.05
2023-02-07T23:45:09.292Z,-10.11
2023-02-07T23:47:43.561Z,-10.16
2023-02-07T23:50:16.221Z,-10.20
2023-02-07T23:52:49.416Z,-10.21
2023-02-07T23:55:21.898Z,-10.26
2023-02-07T23:57:58.211Z,-10.32
